Etusivu
METAR-TAF:

METAR-TAF

Lentoasemat :

Yuma, Arizona, Yhdysvallat

Leveyspiiri: 32-37-25N, Pituuspiiri: 113-45-50W, korkeus merenpinnasta: 64 m

Tämänhetkinen sää

Tämä raportti tehtiin 53 minuuttia sitten, kello 17.57 UTC
Tuuli 17 kn etelästä
Lämpötila 38°C
Kosteus 29%
Ilmanpaine 1007 hPa
Näkyvyys: 16.1 km
selkeää

METAR: KNYL 201757Z AUTO 18017KT 10SM CLR 38/17 A2973 RMK AO2 SLP062 T03780172 10378 20267 51008 $

Aika: 11:50 (18:50 UTC)

Sääennuste

Ennuste voimassa 20. päivästä klo 15 UTC - 21. päivään klo 15 UTC
Tuuli 12 kn etelästä
Näkyvyys 10 km tai enemmän
selkeää
Ajoittain
20. päivästä klo 16 UTC - 20. päivään klo 22 UTC
Tuuli 17 kn etelästä puuskistuen 26 kn:hen

TAF: KNYL 2015/2115 18012KT 9999 SKC QNH2959INS TEMPO 2016/2022 18017G26KT T43/2022Z T28/2112Z

Säähavainnot ja -ennusteet yli 4000 lentoasemalta (METAR- ja TAF-raportit).

Käytössä olevat sääasemat on merkitty karttaan keltaisilla ja punaisilla pisteillä.

Aseta hiiri pisteen päälle nähdäksesi sääaseman nimen.

Klikkaa sitten nähdäksesi säähavainnot ja -ennusteet.

Kartan vaihtaminen: klikkaa mustalla rastilla varustettuja vihreitä pisteitä, niin voit zoomata sisään; viivalla varustettua vihreää pistettä, niin voit zoomata ulos tai vihreitä nuolia, niin pääset viereisille kartoille.


METAR-TAF: